Historyczne dane pomiarowe

Dodano dane terminowe – wersja testowa.

Dane z okresu 1951-2019

Wersja bazy: 1.34 [2019-03-16, lista zmian], aktualizacja planowana na 2019-04-15

Dane meteo z obszaru Polski uzyskane na podstawie danych udostępnionych przez Instytut Meteorologii i Gospodarki Wodnej – Państwowy Instytut Badawczy.

 

Wybierz Datę:    

       

TemperaturaWilgotnośćWiatrCiśnienieOpadyŚniegCzas trwania zjawisk
 Stacja t tx tn tng RH VA  wxwx mslp ppp RRR   cm mm wxwxwxwxwxwxwx
1994-08-14 15.6 19.4 13.7- 71.5- 5.3 9.3---- 0.0------------
1994-08-13 18.5 21.4 17.1- 76.3- 7.3 3.3---- 0.0------------
1994-08-12 20.0 22.0 14.8- 72.5- 5.3 2.0---- 0.7------------
1994-08-11 20.3 24.5 14.7- 70.8- 3.0 4.3---- 0.0------------
1994-08-10 21.2 24.8 17.2- 73.5- 4.0 1.7---- 0.0------------
1994-08-09 20.6 23.8 15.9- 82.0- 7.0 2.0---- 0.0------------
1994-08-08 21.1 25.4 17.2- 73.8- 5.0 2.3---- 0.0------------
1994-08-07 22.4 24.8 19.0- 76.5- 3.0 3.7---- 0.0------------
1994-08-06 24.1 31.1 20.0- 72.8- 5.0 6.0---- 0.0------------
1994-08-05 23.9 29.5 16.7- 70.3- 2.7 1.0---- 0.0------------
1994-08-04 23.0 24.9 21.5- 81.0- 3.7 3.0---- 0.0------------
1994-08-03 22.2 25.6 20.7- 87.5- 6.7 3.7---- 1.0------------
1994-08-02 26.0 31.0 20.2- 74.0- 5.3 2.3---- 7.1------------
1994-08-01 26.6 33.2 23.0- 68.3- 6.7 2.0---- 0.0------------
1994-07-31 27.5 33.2 19.3- 63.8- 5.3 2.7---- 0.0------------
1994-07-30 28.0 32.5 21.2- 60.0- 2.3 1.0---- 0.0------------
1994-07-29 26.9 33.6 19.4- 55.5- 3.3 1.0---- 0.0------------
1994-07-28 25.8 30.8 18.7- 62.8- 0.0 1.7---- 0.0------------
1994-07-27 25.3 30.6 19.5- 56.0- 1.3 1.7---- 0.0------------
1994-07-26 24.6 30.0 14.7- 62.3- 2.0 2.0---- 0.0------------
1994-07-25 22.5 27.5 15.1- 73.5- 2.0 2.0---- 0.0------------
1994-07-24 21.2 27.5 13.4- 63.3- 0.7 2.0---- 0.0------------
1994-07-23 21.3 25.0 13.6- 74.0- 3.0 1.7---- 0.0------------
1994-07-22 20.7 22.7 18.9- 74.5- 3.3 3.3---- 0.0------------
1994-07-21 19.4 23.1 14.6- 70.5- 1.7 6.3---- 0.0------------
1994-07-20 19.7 21.0 14.9- 67.8- 1.3 4.7---- 0.0------------
1994-07-19 19.3 21.4 15.1- 64.3- 3.0 6.3---- 0.0------------
1994-07-18 19.6 22.0 14.5- 66.3- 5.0 5.3---- 0.0------------
1994-07-17 21.0 23.3 18.7- 65.5- 4.0 4.3---- 0.0------------
1994-07-16 22.7 30.1 20.0- 81.0- 6.7 4.7---- 0.0------------
1994-07-15 27.2 32.6 19.3- 59.8- 3.0 2.7---- 0.0------------
1994-07-14 26.0 30.7 19.1- 69.0- 3.0 1.0---- 0.0------------
1994-07-13 24.9 32.2 17.3- 65.5- 3.3 1.7---- 0.0------------
1994-07-12 23.4 28.5 16.1- 72.0- 2.3 1.3---- 0.0------------
1994-07-11 21.1 23.4 18.9- 80.0- 1.0 3.3---- 0.0------------
1994-07-10 19.5 22.6 16.4- 84.5- 1.7 4.0---- 0.0------------
1994-07-09 16.3 20.4 11.1- 87.5- 6.3 3.0---- 0.0------------
1994-07-08 18.4 26.1 12.0- 72.3- 6.7 2.3---- 19.5------------
1994-07-07 17.4 20.8 12.5- 75.8- 3.3 2.7---- 0.0------------
1994-07-06 18.5 22.1 13.4- 75.5- 1.7 4.7---- 0.0------------
1994-07-05 17.1 20.5 13.2- 83.5- 3.7 4.0---- 0.0------------
1994-07-04 17.9 21.1 12.9- 70.0- 0.3 4.7---- 0.0------------
1994-07-03 17.3 21.9 10.6- 65.3- 3.3 3.0---- 0.0------------
1994-07-02 17.1 19.6 14.1- 75.8- 0.3 4.0---- 0.0------------
1994-07-01 15.1 19.3 14.1- 86.3- 5.0 7.3---- 0.0------------
1994-06-30 19.0 26.5 16.7- 78.5- 5.0 7.7---- 0.0------------
1994-06-29 21.6 29.4 13.4- 71.3- 1.3 2.7---- 0.0------------
1994-06-28 19.7 26.0 16.2- 71.3- 2.7 2.7---- 0.0------------
1994-06-27 19.3 22.0 16.8- 76.8- 5.7 3.7---- 0.0------------
1994-06-26 20.3 29.5 13.3- 59.5- 2.0 4.3---- 0.0------------
1994-06-25 17.2 22.6 10.1- 73.8- 1.3 0.0---- 0.0------------
1994-06-24 13.4 19.0 12.2- 77.5- 4.0 10.3---- 0.0------------
1994-06-23 14.2 17.4 12.2- 68.3- 5.7 15.3---- 0.0------------
1994-06-22 17.0 20.2 14.1- 76.5- 7.3 11.0---- 0.0------------
1994-06-21 14.8 19.1 11.4- 75.8- 3.7 3.0---- 0.4------------
1994-06-20 14.1 15.5 12.2- 71.8- 1.7 10.3---- 0.0------------
1994-06-19 13.1 17.6 11.4- 88.5- 8.0 8.3---- 2.3------------
1994-06-18 13.0 15.5 7.3- 67.5- 4.3 4.7---- 2.7------------
1994-06-17 10.3 18.0 8.2- 79.0- 4.0 6.7---- 1.6------------
1994-06-16 11.4 17.4 8.8- 72.0- 6.7 7.7---- 0.2------------
224.9 ms

 

Źródłem pochodzenia danych jest Instytut Meteorologii i Gospodarki Wodnej – Państwowy Instytut Badawczy. Dane Instytutu Meteorologii i Gospodarki Wodnej – Państwowego Instytutu Badawczego zostały przetworzone.

Dane źródłowe można odnaleźć na stronie https://dane.imgw.pl